METAR AND TAF INFORMATION
METAR FOR LFST
ADDS - METARS form results

(2008 UTC 22 April 2019)
Data provider http://aviationweather.gov/metar/data/
 
METAR text: LFST 222000Z AUTO 04007KT CAVOK 20/02 Q1001 NOSIG
Conditions at: LFST (STRASBOURG/ENTZH, FR) observed 2000 UTC 22 April 2019
Temperature: 20.0°C (68°F)
Dewpoint: 2.0°C (36°F) [RH = 30%]
Pressure (altimeter): 29.56 inches Hg (1001.0 mb)
Winds: from the NE (40 degrees) at 8 MPH (7 knots; 3.6 m/s)
Visibility: 6 or more miles (10+ km)
Ceiling: ceiling and visibility are OK
Clouds: unknown
Weather: no significant weather observed at this time

METAR text: LFST 221930Z AUTO 03009KT CAVOK 20/02 Q1001 NOSIG
Conditions at: LFST (STRASBOURG/ENTZH, FR) observed 1930 UTC 22 April 2019
Temperature: 20.0°C (68°F)
Dewpoint: 2.0°C (36°F) [RH = 30%]
Pressure (altimeter): 29.56 inches Hg (1001.0 mb)
Winds: from the NNE (30 degrees) at 10 MPH (9 knots; 4.6 m/s)
Visibility: 6 or more miles (10+ km)
Ceiling: ceiling and visibility are OK
Clouds: unknown
Weather: no significant weather observed at this time

Forecast for: LFST (STRASBOURG/ENTZH, FR)
Text: TAF LFST 221700Z 2218/2318 04008KT CAVOK
Forecast period: 1800 UTC 22 April 2019 to 1200 UTC 23 April 2019
Forecast type: FROM: standard forecast or significant change
Winds: from the NE (40 degrees) at 9 MPH (8 knots; 4.1 m/s)
Visibility: 6 or more miles 10+ km)
Ceiling: unknown
Clouds: missing
Weather: NSW  (no significant weather)
Text: BECMG 2312/2313 18005KT
Forecast period: 1200 to 1800 UTC 23 April 2019
Forecast type: BECOMING: Conditions expected to become as follows by 1300 UTC 23 April 2019
Winds: from the S (180 degrees) at 6 MPH (5 knots; 2.6 m/s)
Visibility: 6 or more miles 10+ km)
Ceiling: unknown
Clouds: missing
Weather: NSW  (no significant weather)
Text: TEMPO 2315/2318 FEW090TCU
Forecast period: 1500 to 1800 UTC 23 April 2019
Forecast type: TEMPORARY: The following changes expected for less than half the time period
Visibility: missing
Ceiling: at least 12,000 feet AGL
Clouds: few clouds at 9000 feet AGL
Weather: no significant weather forecast for this period

 AIRPORT MAP

 RUNWAY INFORMATION
Runway 05 Runway length 7874 ft Runway width 148 ft
Runway elevation 503 ft Runway displaced threshold 0 ft Runway heading 49
Runway 23 Runway length 7874 ft Runway width 148 ft
Runway elevation 491 ft Runway displaced threshold 0 ft Runway heading 229

 AIRPORT FREQUENCIES
Type APP Name STRASBOURG Frequency 119.45 MHZ
Type ATIS Name STRASBOURG Frequency 126.925 MHZ
Type GND Name STRASBOURG Frequency 121.8 MHZ
Type TWR Name STRASBOURG Frequency 126.875 MHZ

 AIRPORT NEAR NAVIGATION AIDS
Type VOR-DME Name Saverne Frequency 110450 KHZ
Type VOR-DME Name Strasbourg Frequency 115600 KHZ



Powered by Virtual Airlines Manager [v2.6.2]